Terminal Aerodrome Forecast
Issued by NWS

Home | Current Version | Previous Version | Text Only | Print | Product List | Glossary On
Versions: 1 2 3 4 5 6 7 8 9 10 11 12 13 14 15 16 17 18 19 20 21 22 23 24 25
000
FTUS44 KEWX 251759 AAA
TAFSSF
TAF AMD
KSSF 251759Z 2518/2618 20008KT P6SM BKN027
     FM251830 17010KT P6SM SCT040
     FM260500 15010KT P6SM BKN012
     FM260800 17010KT 6SM BR OVC008
     FM261400 28015G25KT P6SM SKC=

USA.gov is the U.S. government's official web portal to all federal, state and local government web resources and services.